Time;durP1;ratioP1;P1;durP2;ratioP2;P2;SDS_P1;SDS_P2;PMS_P1;PMS_P2;Temp;Humidity;BMP_temperature;BMP_pressure;BME280_temperature;BME280_humidity;BME280_pressure;Samples;Min_cycle;Max_cycle;Signal;HPM_P1;HPM_P2
2022/05/31 00:01:10;;;;;;;;;;;;;;;13.04;59.91;99709.81;4472372;32;20333;-88
2022/05/31 00:03:36;;;;;;;;;;;;;;;13.12;59.91;99703.31;4471693;32;25161;-88
2022/05/31 00:06:01;;;;;;;;;;;;;;;13.04;59.91;99699.34;4472437;32;19996;-88
2022/05/31 00:08:26;;;;;;;;;;;;;;;12.77;59.89;99688.28;4472468;32;19984;-87
2022/05/31 00:10:51;;;;;;;;;;;;;;;12.98;59.90;99683.91;4486357;32;27481;-89
2022/05/31 00:13:16;;;;;;;;;;;;;;;12.94;59.90;99674.50;4473336;32;20013;-88
2022/05/31 00:15:42;;;;;;;;;;;;;;;12.89;59.90;99686.00;4474611;32;27089;-88
2022/05/31 00:18:08;;;;;;;;;;;;;;;12.93;59.90;99685.88;4477705;32;20796;-88
2022/05/31 00:20:33;;;;;;;;;;;;;;;13.12;59.91;99684.19;4491780;32;20023;-89
2022/05/31 00:22:59;;;;;;;;;;;;;;;13.01;59.90;99689.00;4472402;32;20025;-89
2022/05/31 00:25:24;;;;;;;;;;;;;;;12.93;59.90;99697.19;4471486;32;19993;-88
2022/05/31 00:27:50;;;;;;;;;;;;;;;12.64;59.88;99700.16;4471724;32;20044;-88
2022/05/31 00:30:16;;;;;;;;;;;;;;;12.40;59.87;99705.47;4486168;32;20337;-89
2022/05/31 00:32:42;;;;;;;;;;;;;;;12.60;59.88;99702.06;4471840;32;19989;-88
2022/05/31 00:35:09;;;;;;;;;;;;;;;12.62;59.88;99708.06;4471777;32;20048;-87
2022/05/31 00:37:34;;;;;;;;;;;;;;;12.59;59.88;99710.81;4471805;32;20371;-86
2022/05/31 00:39:59;;;;;;;;;;;;;;;12.48;59.87;99716.44;4471289;32;23822;-87
2022/05/31 00:42:25;;;;;;;;;;;;;;;12.47;59.87;99712.13;4471822;32;20011;-87
2022/05/31 00:44:50;;;;;;;;;;;;;;;12.44;59.87;99720.09;4471968;32;20004;-88
2022/05/31 00:47:24;;;;;;;;;;;;;;;12.43;59.88;99717.53;4471324;32;20681;-88
2022/05/31 00:49:51;;;;;;;;;;;;;;;12.40;59.87;99722.91;4458793;32;19987;-87
2022/05/31 00:52:20;;;;;;;;;;;;;;;12.51;59.88;99726.75;4459768;31;19988;-87
2022/05/31 00:55:05;;;;;;;;;;;;;;;12.76;59.89;99725.75;4502017;31;19988;-88
2022/05/31 00:57:31;;;;;;;;;;;;;;;12.98;59.90;99723.09;4490296;31;19972;-87
2022/05/31 00:59:56;;;;;;;;;;;;;;;12.62;59.88;99734.19;4474023;31;20002;-88
2022/05/31 01:02:22;;;;;;;;;;;;;;;12.33;59.86;99730.12;4474147;31;19983;-88
2022/05/31 01:05:10;;;;;;;;;;;;;;;12.20;59.86;99727.13;4487446;31;19979;-88
2022/05/31 01:07:35;;;;;;;;;;;;;;;12.35;59.86;99730.91;4500417;31;20488;-89
2022/05/31 01:10:03;;;;;;;;;;;;;;;12.46;59.87;99733.94;4488650;31;19972;-89
2022/05/31 01:12:28;;;;;;;;;;;;;;;12.26;59.86;99732.09;4491730;31;19981;-89
2022/05/31 01:14:54;;;;;;;;;;;;;;;12.15;59.86;99736.91;4474920;31;20036;-88
2022/05/31 01:17:20;;;;;;;;;;;;;;;12.23;59.86;99740.06;4474232;31;20000;-88
2022/05/31 01:20:01;;;;;;;;;;;;;;;12.45;59.87;99736.59;4487453;31;20051;-89
2022/05/31 01:22:29;;;;;;;;;;;;;;;12.70;59.88;99736.47;4475811;31;19990;-89
2022/05/31 01:25:14;;;;;;;;;;;;;;;12.10;59.86;99746.69;4487383;31;19996;-87
2022/05/31 01:27:58;;;;;;;;;;;;;;;12.25;59.86;99748.69;4476169;31;19984;-88
2022/05/31 01:30:23;;;;;;;;;;;;;;;12.18;59.86;99752.44;4501725;31;20032;-87
2022/05/31 01:32:53;;;;;;;;;;;;;;;12.23;59.86;99741.81;4473970;31;19972;-87
2022/05/31 01:35:20;;;;;;;;;;;;;;;12.03;59.85;99747.78;4487446;31;20023;-88
2022/05/31 01:37:48;;;;;;;;;;;;;;;11.93;59.84;99757.75;4501539;31;19998;-88
2022/05/31 01:40:15;;;;;;;;;;;;;;;11.94;59.84;99751.63;4487237;31;20351;-88
2022/05/31 01:42:42;;;;;;;;;;;;;;;11.83;59.84;99752.91;4487268;31;19972;-87
2022/05/31 01:45:08;;;;;;;;;;;;;;;11.77;59.84;99748.75;4487417;31;20329;-88
2022/05/31 01:47:33;;;;;;;;;;;;;;;11.75;59.83;99753.16;4501727;31;19972;-89
2022/05/31 01:49:58;;;;;;;;;;;;;;;11.88;59.83;99757.06;4474086;31;19988;-88
2022/05/31 01:52:24;;;;;;;;;;;;;;;12.06;59.85;99760.72;4474143;31;19980;-88
2022/05/31 01:54:49;;;;;;;;;;;;;;;12.09;59.85;99760.62;4501583;31;19980;-89
2022/05/31 01:57:15;;;;;;;;;;;;;;;11.77;59.83;99753.94;4488057;31;20375;-88
2022/05/31 01:59:41;;;;;;;;;;;;;;;11.68;59.83;99759.50;4488125;31;20253;-89
2022/05/31 02:02:06;;;;;;;;;;;;;;;11.76;59.83;99765.28;4489969;31;19993;-88
2022/05/31 02:04:31;;;;;;;;;;;;;;;11.82;59.83;99762.47;4480055;31;26126;-88
2022/05/31 02:07:12;;;;;;;;;;;;;;;11.81;59.83;99759.94;4489429;31;19988;-89
2022/05/31 02:09:38;;;;;;;;;;;;;;;11.65;59.82;99760.47;4487715;31;20333;-89
2022/05/31 02:12:04;;;;;;;;;;;;;;;11.62;59.82;99760.59;4487018;31;20009;-89
2022/05/31 02:14:29;;;;;;;;;;;;;;;11.69;59.83;99766.44;4486857;31;19984;-89
2022/05/31 02:16:55;;;;;;;;;;;;;;;11.70;59.83;99762.91;4501249;31;19987;-89
2022/05/31 02:19:25;;;;;;;;;;;;;;;11.88;59.84;99769.25;4473255;31;28709;-88
2022/05/31 02:21:51;;;;;;;;;;;;;;;11.54;59.82;99766.97;4487492;31;19984;-88
2022/05/31 02:24:16;;;;;;;;;;;;;;;11.43;59.81;99762.16;4473726;31;20292;-89
2022/05/31 02:26:42;;;;;;;;;;;;;;;11.38;59.82;99762.31;4473163;31;21145;-88
2022/05/31 02:29:08;;;;;;;;;;;;;;;11.21;59.80;99766.41;4486785;31;19976;-88
2022/05/31 02:31:33;;;;;;;;;;;;;;;11.34;59.81;99759.84;4501174;31;19964;-88
2022/05/31 02:33:58;;;;;;;;;;;;;;;11.22;59.81;99758.53;4501165;31;20009;-88
2022/05/31 02:36:23;;;;;;;;;;;;;;;11.24;59.81;99761.94;4487780;31;20344;-88
2022/05/31 02:38:48;;;;;;;;;;;;;;;11.42;59.81;99773.47;4476647;31;31206;-87
2022/05/31 02:41:14;;;;;;;;;;;;;;;11.53;59.82;99765.28;4486416;31;20255;-89
2022/05/31 02:43:39;;;;;;;;;;;;;;;11.48;59.82;99770.66;4485950;31;20004;-89
2022/05/31 02:46:04;;;;;;;;;;;;;;;11.49;59.82;99771.50;4486576;31;19995;-86
2022/05/31 02:48:30;;;;;;;;;;;;;;;11.59;59.83;99771.13;4501004;31;20050;-86
2022/05/31 02:50:55;;;;;;;;;;;;;;;11.67;59.82;99778.69;4486281;31;19980;-87
2022/05/31 02:53:20;;;;;;;;;;;;;;;11.70;59.83;99783.78;4485823;31;24565;-87
2022/05/31 02:55:45;;;;;;;;;;;;;;;11.73;59.83;99780.22;4472806;31;24452;-88
2022/05/31 02:58:11;;;;;;;;;;;;;;;11.71;59.83;99771.59;4500147;31;23210;-87
2022/05/31 03:00:36;;;;;;;;;;;;;;;11.57;59.82;99774.69;4500013;31;36194;-88
2022/05/31 03:03:01;;;;;;;;;;;;;;;11.50;59.82;99773.19;4486000;31;19992;-90
2022/05/31 03:05:26;;;;;;;;;;;;;;;11.38;59.81;99770.13;4472993;31;19992;-89
2022/05/31 03:07:52;;;;;;;;;;;;;;;11.77;59.84;99779.19;4473185;31;19996;-89
2022/05/31 03:10:17;;;;;;;;;;;;;;;11.88;59.83;99771.87;4473487;31;20320;-92
2022/05/31 03:12:42;;;;;;;;;;;;;;;11.77;59.83;99769.59;4474229;31;20045;-92
2022/05/31 03:18:07;;;;;;;;;;;;;;;11.91;59.85;99767.38;4491368;31;19987;-91
2022/05/31 03:20:38;;;;;;;;;;;;;;;12.03;59.84;99765.22;4475126;31;19988;-92
2022/05/31 03:23:03;;;;;;;;;;;;;;;11.87;59.83;99763.19;4490680;31;20634;-92
2022/05/31 03:25:29;;;;;;;;;;;;;;;11.88;59.84;99762.28;4490094;31;20003;-91
2022/05/31 03:27:54;;;;;;;;;;;;;;;11.93;59.84;99762.97;4476408;31;20032;-91
2022/05/31 03:30:20;;;;;;;;;;;;;;;11.96;59.84;99762.00;4489176;31;19996;-91
2022/05/31 03:32:45;;;;;;;;;;;;;;;12.05;59.84;99758.16;4476259;31;20008;-92
2022/05/31 03:35:10;;;;;;;;;;;;;;;12.05;59.84;99759.03;4475788;31;20016;-92
2022/05/31 03:37:36;;;;;;;;;;;;;;;12.12;59.85;99763.13;4474753;31;19984;-91
2022/05/31 03:40:01;;;;;;;;;;;;;;;12.12;59.84;99770.94;4475811;31;20017;-93
2022/05/31 03:42:26;;;;;;;;;;;;;;;12.18;59.85;99770.72;4489821;31;19984;-92
2022/05/31 03:44:52;;;;;;;;;;;;;;;12.28;59.85;99771.19;4490105;31;19992;-92
2022/05/31 03:47:25;;;;;;;;;;;;;;;12.48;59.87;99773.88;4478547;31;20222;-92
2022/05/31 03:49:50;;;;;;;;;;;;;;;12.57;59.88;99776.16;4485409;31;19982;-93
2022/05/31 03:52:15;;;;;;;;;;;;;;;12.71;59.88;99772.13;4479960;31;19996;-90
2022/05/31 03:54:40;;;;;;;;;;;;;;;12.86;59.89;99768.91;4474513;31;19980;-90
2022/05/31 03:57:06;;;;;;;;;;;;;;;12.83;59.89;99776.84;4475100;31;20317;-89
2022/05/31 03:59:37;;;;;;;;;;;;;;;12.88;59.89;99777.50;4502607;31;19999;-89
2022/05/31 04:02:03;;;;;;;;;;;;;;;12.89;59.90;99772.22;4481499;31;20019;-90
2022/05/31 04:04:28;;;;;;;;;;;;;;;12.89;59.89;99777.44;4474807;31;20085;-89
2022/05/31 04:06:54;;;;;;;;;;;;;;;13.10;59.90;99785.31;4474518;31;19988;-89
2022/05/31 04:09:19;;;;;;;;;;;;;;;13.19;59.91;99780.56;4474268;31;20870;-89
2022/05/31 04:11:44;;;;;;;;;;;;;;;13.27;59.92;99788.13;4487522;31;19984;-91
2022/05/31 04:14:09;;;;;;;;;;;;;;;13.42;59.92;99781.38;4474577;31;20071;-90
2022/05/31 04:16:35;;;;;;;;;;;;;;;13.50;59.93;99777.53;4487684;31;19988;-89
2022/05/31 04:19:01;;;;;;;;;;;;;;;13.52;59.93;99780.06;4487934;31;19991;-87
2022/05/31 04:21:26;;;;;;;;;;;;;;;13.63;59.93;99777.81;4487297;31;20325;-88
2022/05/31 04:24:08;;;;;;;;;;;;;;;13.69;59.93;99782.78;4487677;31;20115;-88
2022/05/31 04:26:38;;;;;;;;;;;;;;;13.90;59.95;99775.72;4476251;31;20035;-88
2022/05/31 04:29:03;;;;;;;;;;;;;;;14.03;59.96;99778.66;4487774;31;19968;-88
2022/05/31 04:31:29;;;;;;;;;;;;;;;14.16;59.96;99771.06;4502360;31;19987;-88
2022/05/31 04:33:54;;;;;;;;;;;;;;;14.30;59.97;99769.53;4502331;31;20029;-88
2022/05/31 04:36:20;;;;;;;;;;;;;;;14.61;59.98;99760.22;4487841;31;20007;-88
2022/05/31 04:38:45;;;;;;;;;;;;;;;14.77;59.99;99761.19;4487896;31;19964;-88
2022/05/31 04:41:17;;;;;;;;;;;;;;;14.89;60.00;99757.97;4487625;31;20336;-87
2022/05/31 04:43:42;;;;;;;;;;;;;;;14.90;60.00;99764.03;4487491;31;20437;-87
2022/05/31 04:46:08;;;;;;;;;;;;;;;15.10;60.02;99757.81;4487420;31;20000;-86
2022/05/31 04:48:34;;;;;;;;;;;;;;;15.31;60.02;99756.72;4487434;31;19995;-86
2022/05/31 04:50:59;;;;;;;;;;;;;;;15.51;60.03;99763.56;4502002;31;20014;-86
2022/05/31 04:53:24;;;;;;;;;;;;;;;15.68;60.04;99758.34;4502145;31;20331;-86
2022/05/31 04:55:49;;;;;;;;;;;;;;;15.71;60.04;99758.16;4502042;31;20415;-87
2022/05/31 04:58:15;;;;;;;;;;;;;;;15.80;60.05;99757.66;4501837;31;19960;-86
2022/05/31 05:00:40;;;;;;;;;;;;;;;15.74;60.05;99754.53;4501776;31;20012;-86
2022/05/31 05:03:05;;;;;;;;;;;;;;;15.84;60.04;99751.31;4501820;31;20002;-87
2022/05/31 05:05:33;;;;;;;;;;;;;;;16.13;60.06;99756.78;4501423;31;19976;-87
2022/05/31 05:07:59;;;;;;;;;;;;;;;16.23;60.08;99755.34;4487465;31;19976;-86
2022/05/31 05:10:24;;;;;;;;;;;;;;;16.45;60.08;99750.59;4501771;31;19984;-86
2022/05/31 05:12:49;;;;;;;;;;;;;;;16.51;60.09;99747.63;4487109;31;20405;-86
2022/05/31 05:15:14;;;;;;;;;;;;;;;16.38;60.07;99753.66;4474263;31;20318;-86
2022/05/31 05:17:40;;;;;;;;;;;;;;;16.32;60.08;99757.44;4501668;31;20054;-87
2022/05/31 05:20:05;;;;;;;;;;;;;;;16.45;60.08;99752.38;4501163;31;20051;-85
2022/05/31 05:22:30;;;;;;;;;;;;;;;16.44;60.08;99755.94;4501652;31;19984;-87
2022/05/31 05:24:56;;;;;;;;;;;;;;;16.54;60.08;99754.47;4501624;31;20323;-86
2022/05/31 05:27:21;;;;;;;;;;;;;;;16.63;60.10;99756.59;4501696;31;20231;-85
2022/05/31 05:32:30;;;;;;;;;;;;;;;16.94;60.11;99763.59;4490224;31;20041;-86
2022/05/31 05:34:55;;;;;;;;;;;;;;;17.07;60.11;99763.75;4503803;31;19984;-86
2022/05/31 05:37:20;;;;;;;;;;;;;;;17.30;60.13;99757.13;4501775;31;20004;-85
2022/05/31 05:39:46;;;;;;;;;;;;;;;17.59;60.14;99756.22;4487204;31;19985;-86
2022/05/31 05:42:11;;;;;;;;;;;;;;;17.40;60.14;99755.63;4501532;31;19976;-86
2022/05/31 05:44:37;;;;;;;;;;;;;;;17.39;60.12;99757.44;4487123;31;19990;-86
2022/05/31 05:47:06;;;;;;;;;;;;;;;17.60;60.14;99759.72;4486971;31;19980;-86
2022/05/31 05:49:31;;;;;;;;;;;;;;;17.84;60.15;99750.34;4501126;31;19992;-85
2022/05/31 05:51:57;;;;;;;;;;;;;;;17.97;60.16;99750.41;4501354;31;20394;-86
2022/05/31 05:54:22;;;;;;;;;;;;;;;18.18;60.17;99750.84;4501204;31;20020;-86
2022/05/31 05:56:47;;;;;;;;;;;;;;;18.35;60.18;99754.12;4500811;31;19984;-86
2022/05/31 05:59:12;;;;;;;;;;;;;;;18.30;60.18;99752.72;4501122;31;20011;-86
2022/05/31 06:01:45;;;;;;;;;;;;;;;18.37;60.18;99756.66;4486477;31;20383;-87
2022/05/31 06:04:18;;;;;;;;;;;;;;;18.67;60.20;99756.47;4486827;31;19980;-86
2022/05/31 06:06:44;;;;;;;;;;;;;;;18.93;60.22;99752.16;4501326;31;19976;-87
2022/05/31 06:09:11;;;;;;;;;;;;;;;18.92;60.22;99764.47;4486968;31;19983;-86
2022/05/31 06:11:53;;;;;;;;;;;;;;;19.08;60.21;99759.03;4486819;31;20006;-85
2022/05/31 06:14:29;;;;;;;;;;;;;;;19.18;60.23;99754.84;4486381;31;19980;-84
2022/05/31 06:16:56;;;;;;;;;;;;;;;19.40;60.24;99753.38;4485669;31;20316;-84
2022/05/31 06:19:22;;;;;;;;;;;;;;;19.37;60.24;99762.34;4486644;31;19976;-85
2022/05/31 06:21:48;;;;;;;;;;;;;;;19.56;60.25;99760.16;4486880;31;19992;-84
2022/05/31 06:24:13;;;;;;;;;;;;;;;19.83;60.26;99761.84;4486741;31;19968;-84
2022/05/31 06:26:39;;;;;;;;;;;;;;;19.95;60.27;99760.16;4486788;31;20365;-84
2022/05/31 06:29:04;;;;;;;;;;;;;;;20.05;60.28;99763.81;4500963;31;20321;-84
2022/05/31 06:31:30;;;;;;;;;;;;;;;20.22;60.28;99760.84;4486789;31;19984;-84
2022/05/31 06:33:55;;;;;;;;;;;;;;;20.22;60.28;99776.69;4486801;31;20341;-84
2022/05/31 06:36:20;;;;;;;;;;;;;;;20.25;60.29;99771.19;4501151;31;19987;-84
2022/05/31 06:38:45;;;;;;;;;;;;;;;20.63;60.31;99768.44;4486712;31;20367;-84
2022/05/31 06:41:11;;;;;;;;;;;;;;;20.80;60.32;99772.47;4501109;31;19972;-84
2022/05/31 06:43:36;;;;;;;;;;;;;;;21.06;60.33;99779.34;4500968;31;19972;-85
2022/05/31 06:46:05;;;;;;;;;;;;;;;21.41;60.35;99778.50;4486624;31;19991;-84
2022/05/31 06:48:30;;;;;;;;;;;;;;;21.73;60.36;99768.06;4486614;31;20018;-84
2022/05/31 06:50:55;;;;;;;;;;;;;;;22.04;60.38;99766.56;4500648;31;20280;-84
2022/05/31 06:58:48;;;;;;;;;;;;;;;22.55;60.40;99756.22;4500735;31;19995;-84
2022/05/31 07:01:15;;;;;;;;;;;;;;;22.62;60.40;99761.88;4500798;31;19980;-84
2022/05/31 07:03:40;;;;;;;;;;;;;;;22.79;60.42;99755.19;4486493;31;19980;-84
2022/05/31 07:06:05;;;;;;;;;;;;;;;22.66;60.42;99752.69;4486259;31;20084;-84
2022/05/31 07:08:31;;;;;;;;;;;;;;;22.92;60.42;99754.06;4500476;31;20006;-84
2022/05/31 07:10:56;;;;;;;;;;;;;;;23.01;60.43;99755.13;4486264;31;19999;-84
2022/05/31 07:13:21;;;;;;;;;;;;;;;22.92;60.43;99754.06;4486133;31;19980;-84
2022/05/31 07:15:46;;;;;;;;;;;;;;;22.92;60.42;99756.72;4500122;31;21777;-84
2022/05/31 07:18:12;;;;;;;;;;;;;;;23.03;60.44;99750.53;4485939;31;23109;-84
2022/05/31 07:20:37;;;;;;;;;;;;;;;23.15;60.44;99759.25;4485872;31;20314;-86
2022/05/31 07:23:02;;;;;;;;;;;;;;;23.07;60.43;99748.44;4485785;31;19971;-87
2022/05/31 07:25:27;;;;;;;;;;;;;;;23.34;60.44;99753.25;4485876;31;19980;-87
2022/05/31 07:27:52;;;;;;;;;;;;;;;23.36;60.45;99752.13;4500488;31;19988;-86
2022/05/31 07:30:18;;;;;;;;;;;;;;;23.52;60.46;99762.31;4474904;31;19999;-87
2022/05/31 07:32:43;;;;;;;;;;;;;;;23.62;60.46;99765.03;4474712;31;20032;-87
2022/05/31 07:35:08;;;;;;;;;;;;;;;23.65;60.46;99760.31;4488073;31;20260;-88
2022/05/31 07:37:34;;;;;;;;;;;;;;;23.70;60.47;99759.94;4474785;31;20286;-84
2022/05/31 07:39:59;;;;;;;;;;;;;;;23.51;60.46;99765.94;4502271;31;20365;-84
2022/05/31 07:42:24;;;;;;;;;;;;;;;23.58;60.47;99767.97;4502398;31;20251;-85
2022/05/31 07:44:53;;;;;;;;;;;;;;;23.64;60.46;99766.59;4502435;31;19991;-85
2022/05/31 07:47:18;;;;;;;;;;;;;;;23.71;60.47;99766.94;4487979;31;20011;-84
2022/05/31 07:49:44;;;;;;;;;;;;;;;23.79;60.47;99761.78;4487763;31;19995;-85
2022/05/31 07:52:09;;;;;;;;;;;;;;;23.88;60.48;99768.94;4487746;31;19968;-84
2022/05/31 07:54:34;;;;;;;;;;;;;;;24.11;60.49;99775.75;4474636;31;19982;-84
2022/05/31 07:57:01;;;;;;;;;;;;;;;24.30;60.50;99777.66;4502147;31;20053;-86
2022/05/31 07:59:27;;;;;;;;;;;;;;;24.37;60.51;99775.31;4474637;31;19995;-85
2022/05/31 08:01:52;;;;;;;;;;;;;;;24.48;60.51;99767.22;4502284;31;20033;-84
2022/05/31 08:04:17;;;;;;;;;;;;;;;24.35;60.50;99775.44;4502235;31;19996;-84
2022/05/31 08:06:43;;;;;;;;;;;;;;;24.45;60.51;99781.63;4502108;31;19972;-84
2022/05/31 08:09:08;;;;;;;;;;;;;;;24.45;60.51;99781.63;4502185;31;19992;-84
2022/05/31 08:11:33;;;;;;;;;;;;;;;24.50;60.51;99775.91;4501907;31;19988;-84
2022/05/31 08:13:59;;;;;;;;;;;;;;;24.85;60.54;99769.25;4474601;31;19993;-84
2022/05/31 08:16:25;;;;;;;;;;;;;;;25.17;60.55;99777.81;4487546;31;20000;-84
2022/05/31 08:18:50;;;;;;;;;;;;;;;25.23;60.55;99782.56;4487690;31;20007;-84
2022/05/31 08:21:17;;;;;;;;;;;;;;;25.36;60.56;99780.44;4502030;31;19981;-84
2022/05/31 08:23:42;;;;;;;;;;;;;;;25.59;60.57;99772.97;4487719;31;19995;-85
2022/05/31 08:26:07;;;;;;;;;;;;;;;25.46;60.57;99777.75;4487378;31;20040;-84
2022/05/31 08:28:32;;;;;;;;;;;;;;;25.43;60.57;99780.72;4502046;31;20032;-85
2022/05/31 08:31:10;;;;;;;;;;;;;;;25.59;60.57;99775.62;4501988;31;19988;-85
2022/05/31 08:33:35;;;;;;;;;;;;;;;25.81;60.58;99779.81;4487468;31;20373;-84
2022/05/31 08:36:00;;;;;;;;;;;;;;;25.85;60.58;99781.19;4487439;31;20035;-84
2022/05/31 08:38:25;;;;;;;;;;;;;;;26.00;60.59;99778.88;4502115;31;19984;-86
2022/05/31 08:41:07;;;;;;;;;;;;;;;26.13;60.60;99783.88;4473813;31;20273;-85
2022/05/31 08:43:36;;;;;;;;;;;;;;;26.16;60.61;99779.09;4487486;31;20021;-84
2022/05/31 08:46:03;;;;;;;;;;;;;;;26.20;60.60;99780.47;4474475;31;20479;-84
2022/05/31 08:48:30;;;;;;;;;;;;;;;26.04;60.60;99788.28;4487478;31;20055;-85
2022/05/31 08:53:43;;;;;;;;;;;;;;;26.29;60.61;99776.09;4489640;31;20642;-84
2022/05/31 08:59:03;;;;;;;;;;;;;;;26.41;60.62;99777.59;4501925;31;20391;-84
2022/05/31 09:01:30;;;;;;;;;;;;;;;26.42;60.62;99778.41;4487295;31;19976;-85
2022/05/31 09:04:00;;;;;;;;;;;;;;;26.42;60.62;99778.41;4487593;31;19996;-84
2022/05/31 09:06:27;;;;;;;;;;;;;;;26.56;60.63;99775.25;4487421;31;20007;-85
2022/05/31 09:09:01;;;;;;;;;;;;;;;26.70;60.63;99780.06;4487323;31;20369;-85
2022/05/31 09:11:28;;;;;;;;;;;;;;;26.74;60.63;99777.94;4501687;31;20337;-85
2022/05/31 09:13:58;;;;;;;;;;;;;;;26.72;60.63;99771.87;4487274;31;20035;-85
2022/05/31 09:16:42;;;;;;;;;;;;;;;26.69;60.63;99769.53;4473980;31;20010;-84
2022/05/31 09:19:08;;;;;;;;;;;;;;;26.64;60.63;99766.47;4501704;31;19994;-84
2022/05/31 09:21:34;;;;;;;;;;;;;;;26.68;60.63;99763.34;4487232;31;19973;-84
2022/05/31 09:23:59;;;;;;;;;;;;;;;26.73;60.64;99768.22;4501657;31;19963;-85
2022/05/31 09:26:24;;;;;;;;;;;;;;;26.98;60.65;99759.47;4502161;31;19999;-84
2022/05/31 09:28:54;;;;;;;;;;;;;;;27.06;60.65;99772.09;4488309;31;20292;-84
2022/05/31 09:31:34;;;;;;;;;;;;;;;27.16;60.66;99764.81;4488403;31;19979;-85
2022/05/31 09:34:06;;;;;;;;;;;;;;;27.17;60.65;99753.97;4501684;31;20040;-85
2022/05/31 09:36:35;;;;;;;;;;;;;;;27.14;60.65;99769.47;4487303;31;20281;-85
2022/05/31 09:39:07;;;;;;;;;;;;;;;27.17;60.65;99761.16;4475829;31;20022;-84
2022/05/31 09:41:34;;;;;;;;;;;;;;;27.32;60.67;99761.44;4488753;31;20039;-84
2022/05/31 09:44:10;;;;;;;;;;;;;;;27.42;60.66;99759.50;4487310;31;19992;-85
2022/05/31 09:46:51;;;;;;;;;;;;;;;27.50;60.68;99760.41;4487282;31;20045;-85
2022/05/31 09:49:21;;;;;;;;;;;;;;;27.39;60.67;99762.47;4501559;31;19980;-85
2022/05/31 09:51:46;;;;;;;;;;;;;;;27.44;60.67;99760.16;4485815;31;20014;-84
2022/05/31 09:57:08;;;;;;;;;;;;;;;27.77;60.69;99755.91;4489171;31;20003;-85
2022/05/31 09:59:54;;;;;;;;;;;;;;;27.73;60.70;99759.91;4501444;31;19984;-85
2022/05/31 10:02:19;;;;;;;;;;;;;;;27.55;60.67;99757.25;4500784;31;19984;-85
2022/05/31 10:04:45;;;;;;;;;;;;;;;27.41;60.67;99755.16;4501403;31;19995;-85
2022/05/31 10:07:10;;;;;;;;;;;;;;;27.54;60.67;99755.56;4473759;31;20337;-85
2022/05/31 10:09:36;;;;;;;;;;;;;;;27.51;60.68;99754.06;4486625;31;20324;-85
2022/05/31 10:12:04;;;;;;;;;;;;;;;27.68;60.69;99746.16;4501061;31;20293;-85
2022/05/31 10:14:33;;;;;;;;;;;;;;;27.84;60.70;99743.56;4486974;31;19973;-85
2022/05/31 10:17:17;;;;;;;;;;;;;;;28.12;60.71;99744.19;4486897;31;19992;-85
2022/05/31 10:19:43;;;;;;;;;;;;;;;28.32;60.72;99745.62;4501370;31;19981;-85
2022/05/31 10:22:17;;;;;;;;;;;;;;;28.23;60.71;99740.38;4501150;31;20226;-84
2022/05/31 10:24:42;;;;;;;;;;;;;;;28.27;60.71;99737.25;4486854;31;19983;-85
2022/05/31 10:27:19;;;;;;;;;;;;;;;28.38;60.72;99730.75;4486155;31;20957;-84
2022/05/31 10:29:48;;;;;;;;;;;;;;;28.43;60.72;99744.50;4486837;31;19988;-85
2022/05/31 10:32:24;;;;;;;;;;;;;;;28.27;60.71;99737.25;4486986;31;19967;-85
2022/05/31 10:34:50;;;;;;;;;;;;;;;28.52;60.72;99732.78;4501237;31;19972;-85
2022/05/31 10:37:22;;;;;;;;;;;;;;;28.74;60.74;99736.69;4501033;31;20011;-86
2022/05/31 10:39:58;;;;;;;;;;;;;;;28.94;60.75;99732.72;4486757;31;20004;-85
2022/05/31 10:42:23;;;;;;;;;;;;;;;28.88;60.75;99737.91;4486539;31;20364;-84
2022/05/31 10:44:51;;;;;;;;;;;;;;;28.77;60.75;99738.19;4500891;31;19975;-85
2022/05/31 10:47:17;;;;;;;;;;;;;;;28.81;60.74;99735.00;4487171;31;20346;-85
2022/05/31 10:49:43;;;;;;;;;;;;;;;28.49;60.73;99729.63;4486647;31;19994;-84
2022/05/31 10:52:17;;;;;;;;;;;;;;;28.32;60.72;99742.94;4500863;31;19977;-84
2022/05/31 10:54:42;;;;;;;;;;;;;;;28.25;60.72;99749.13;4473215;31;19984;-84
2022/05/31 10:57:13;;;;;;;;;;;;;;;28.46;60.73;99746.00;4500839;31;20003;-84
2022/05/31 10:59:41;;;;;;;;;;;;;;;28.35;60.72;99744.47;4473220;31;20340;-85
2022/05/31 11:02:06;;;;;;;;;;;;;;;28.63;60.73;99740.53;4486440;31;19992;-85
2022/05/31 11:04:32;;;;;;;;;;;;;;;28.55;60.73;99729.78;4500162;31;19999;-84
2022/05/31 11:07:01;;;;;;;;;;;;;;;28.50;60.73;99731.28;4500806;31;19988;-84
2022/05/31 11:12:17;;;;;;;;;;;;;;;28.98;60.75;99720.66;4500684;31;19986;-85
2022/05/31 11:15:00;;;;;;;;;;;;;;;29.11;60.76;99725.50;4486202;31;19972;-84
2022/05/31 11:17:32;;;;;;;;;;;;;;;29.38;60.77;99712.75;4500469;31;20047;-84
2022/05/31 11:19:57;;;;;;;;;;;;;;;29.66;60.78;99708.66;4500531;31;19999;-84
2022/05/31 11:22:35;;;;;;;;;;;;;;;29.38;60.77;99713.56;4486224;31;20024;-85
2022/05/31 11:25:20;;;;;;;;;;;;;;;29.12;60.76;99721.81;4486451;31;19968;-85
2022/05/31 11:27:48;;;;;;;;;;;;;;;28.90;60.75;99723.34;4500438;31;19992;-84
2022/05/31 11:30:39;;;;;;;;;;;;;;;28.76;60.74;99717.75;4485905;31;20041;-84
2022/05/31 11:33:11;;;;;;;;;;;;;;;28.77;60.73;99716.75;4475592;31;19972;-85
2022/05/31 11:35:36;;;;;;;;;;;;;;;28.89;60.75;99712.78;4500380;31;20328;-84
2022/05/31 11:38:05;;;;;;;;;;;;;;;28.97;60.75;99708.25;4500092;31;19999;-84
2022/05/31 11:40:34;;;;;;;;;;;;;;;28.84;60.75;99707.88;4485886;31;20011;-84
2022/05/31 11:43:16;;;;;;;;;;;;;;;28.90;60.75;99701.91;4485589;31;20016;-84
2022/05/31 11:45:44;;;;;;;;;;;;;;;28.97;60.75;99702.91;4485853;31;20008;-85
2022/05/31 11:48:20;;;;;;;;;;;;;;;29.09;60.75;99697.19;4485650;31;20281;-85
2022/05/31 11:51:01;;;;;;;;;;;;;;;29.10;60.76;99697.00;4486078;31;20012;-85
2022/05/31 11:53:26;;;;;;;;;;;;;;;28.90;60.74;99693.88;4500077;31;19976;-85
2022/05/31 11:55:57;;;;;;;;;;;;;;;29.01;60.76;99690.81;4500101;31;20336;-85
2022/05/31 11:58:29;;;;;;;;;;;;;;;29.01;60.77;99698.88;4472712;31;20004;-84
2022/05/31 12:01:11;;;;;;;;;;;;;;;28.90;60.75;99693.03;4499982;31;19984;-84
2022/05/31 12:03:46;;;;;;;;;;;;;;;28.73;60.74;99692.16;4485900;31;20035;-85
2022/05/31 12:06:35;;;;;;;;;;;;;;;28.37;60.73;99695.09;4485510;31;19967;-85
2022/05/31 12:09:03;;;;;;;;;;;;;;;28.23;60.72;99692.22;4491774;31;19980;-84
2022/05/31 12:11:33;;;;;;;;;;;;;;;28.35;60.72;99685.56;4485647;31;19984;-85
2022/05/31 12:13:59;;;;;;;;;;;;;;;28.37;60.73;99681.72;4485384;31;19994;-84
2022/05/31 12:16:25;;;;;;;;;;;;;;;28.53;60.74;99680.06;4501478;31;19980;-85
2022/05/31 12:19:02;;;;;;;;;;;;;;;28.64;60.74;99671.72;4488919;31;20318;-85
2022/05/31 12:21:30;;;;;;;;;;;;;;;28.74;60.74;99664.34;4503673;31;20004;-84
2022/05/31 12:24:01;;;;;;;;;;;;;;;28.69;60.75;99666.69;4488730;31;20340;-85
2022/05/31 12:26:26;;;;;;;;;;;;;;;28.78;60.75;99664.84;4487896;31;19994;-85
2022/05/31 12:28:53;;;;;;;;;;;;;;;28.71;60.74;99664.69;4487618;31;19992;-84
2022/05/31 12:31:20;;;;;;;;;;;;;;;28.75;60.74;99660.66;4487707;31;19987;-84
2022/05/31 12:33:49;;;;;;;;;;;;;;;28.83;60.75;99657.13;4487671;31;20014;-84
2022/05/31 12:36:14;;;;;;;;;;;;;;;29.04;60.75;99650.28;4488194;31;19982;-84
2022/05/31 12:38:58;;;;;;;;;;;;;;;29.03;60.76;99643.25;4502022;31;20000;-84
2022/05/31 12:41:33;;;;;;;;;;;;;;;29.15;60.76;99637.56;4502131;31;19979;-84
2022/05/31 12:43:58;;;;;;;;;;;;;;;29.16;60.77;99632.03;4487396;31;19976;-84
2022/05/31 12:46:26;;;;;;;;;;;;;;;29.42;60.78;99633.63;4502015;31;19991;-84
2022/05/31 12:48:58;;;;;;;;;;;;;;;29.39;60.79;99631.28;4501787;31;20000;-85
2022/05/31 12:51:24;;;;;;;;;;;;;;;29.51;60.78;99635.28;4487511;31;19961;-84
2022/05/31 12:53:49;;;;;;;;;;;;;;;29.59;60.78;99628.06;4501982;31;20343;-85
2022/05/31 12:56:30;;;;;;;;;;;;;;;29.48;60.79;99633.78;4501868;31;19965;-84
2022/05/31 12:58:56;;;;;;;;;;;;;;;29.41;60.78;99630.09;4501801;31;20041;-84
2022/05/31 13:01:24;;;;;;;;;;;;;;;29.43;60.78;99636.13;4487418;31;20016;-84
2022/05/31 13:03:49;;;;;;;;;;;;;;;29.50;60.79;99623.72;4501918;31;20006;-84
2022/05/31 13:06:14;;;;;;;;;;;;;;;29.69;60.79;99629.69;4501814;31;19965;-84
2022/05/31 13:08:44;;;;;;;;;;;;;;;29.72;60.80;99618.59;4501829;31;20253;-84
2022/05/31 13:19:37;;;;;;;;;;;;;;;29.80;60.80;99611.34;4489410;31;20044;-84
2022/05/31 13:22:03;;;;;;;;;;;;;;;29.48;60.78;99612.31;4475156;31;19992;-83